Time;durP1;ratioP1;P1;durP2;ratioP2;P2;SDS_P1;SDS_P2;PMS_P1;PMS_P2;Temp;Humidity;BMP_temperature;BMP_pressure;BME280_temperature;BME280_humidity;BME280_pressure;Samples;Min_cycle;Max_cycle;Signal;HPM_P1;HPM_P2
2022/01/19 00:01:21;;;;;;;10.85;8.05;;;;;;;7.57;60.60;103168.28;5053512;28;20037;-68
2022/01/19 00:03:48;;;;;;;16.45;9.75;;;;;;;7.55;60.32;103162.06;5054617;28;20048;-68
2022/01/19 00:06:15;;;;;;;14.75;9.88;;;;;;;7.54;60.30;103165.66;5054997;28;20132;-68
2022/01/19 00:08:42;;;;;;;13.45;8.88;;;;;;;7.51;60.12;103157.72;5054620;28;20047;-67
2022/01/19 00:11:08;;;;;;;71.85;14.32;;;;;;;7.40;59.99;103172.19;5054596;28;20454;-67
2022/01/19 00:13:35;;;;;;;59.95;13.85;;;;;;;7.27;60.00;103171.56;5054625;28;20041;-68
2022/01/19 00:16:03;;;;;;;53.15;12.25;;;;;;;7.15;60.01;103171.81;5053329;28;20468;-67
2022/01/19 00:18:29;;;;;;;16.52;10.27;;;;;;;7.03;60.11;103172.91;5052834;28;20045;-67
2022/01/19 00:20:56;;;;;;;31.40;10.15;;;;;;;6.96;60.10;103166.81;5054558;28;20116;-67
2022/01/19 00:23:24;;;;;;;13.68;9.85;;;;;;;6.91;60.28;103163.34;5054343;28;20068;-68
2022/01/19 00:25:52;;;;;;;13.35;8.93;;;;;;;6.93;60.47;103152.63;5054493;28;20401;-66
2022/01/19 00:28:20;;;;;;;12.98;8.45;;;;;;;6.95;60.38;103142.81;5053765;28;20148;-67
2022/01/19 00:30:47;;;;;;;12.77;9.18;;;;;;;6.97;60.45;103124.94;5054648;28;20119;-67
2022/01/19 00:33:14;;;;;;;12.45;8.90;;;;;;;6.99;60.63;103104.44;5052760;28;20065;-67
2022/01/19 00:35:41;;;;;;;10.93;8.48;;;;;;;7.01;60.56;103091.91;5052894;28;20136;-67
2022/01/19 00:38:09;;;;;;;10.70;8.15;;;;;;;7.01;60.40;103078.56;5054046;28;20120;-67
2022/01/19 00:40:38;;;;;;;12.60;8.32;;;;;;;7.01;60.35;103075.88;5054148;28;20162;-67
2022/01/19 00:43:05;;;;;;;12.98;8.48;;;;;;;6.99;60.27;103073.25;5052770;28;20490;-68
2022/01/19 00:45:31;;;;;;;19.40;10.43;;;;;;;6.98;60.31;103087.53;5054264;28;20124;-67
2022/01/19 00:48:18;;;;;;;17.95;10.65;;;;;;;6.94;60.25;103083.16;5053760;28;20069;-67
2022/01/19 00:50:46;;;;;;;14.52;10.10;;;;;;;6.93;60.22;103091.19;5052847;28;20125;-67
2022/01/19 00:53:12;;;;;;;16.60;9.88;;;;;;;6.92;60.19;103094.78;5051887;28;20143;-66
2022/01/19 00:55:40;;;;;;;13.38;9.25;;;;;;;6.90;60.23;103097.47;5056543;28;20129;-67
2022/01/19 00:58:06;;;;;;;47.05;11.25;;;;;;;6.88;60.23;103096.63;5055646;28;20061;-67
2022/01/19 01:00:33;;;;;;;13.10;9.52;;;;;;;6.85;60.39;103094.03;5054225;28;20048;-67
2022/01/19 01:03:02;;;;;;;17.83;9.88;;;;;;;6.82;60.29;103086.06;5054034;28;20044;-67
2022/01/19 01:05:31;;;;;;;22.77;11.48;;;;;;;6.81;60.24;103078.97;5052581;28;20056;-66
2022/01/19 01:07:58;;;;;;;21.73;12.30;;;;;;;6.79;60.34;103070.09;5052303;28;20075;-66
2022/01/19 01:10:25;;;;;;;20.02;12.18;;;;;;;6.77;60.35;103061.25;5053795;28;20137;-66
2022/01/19 01:12:54;;;;;;;20.13;11.73;;;;;;;6.77;60.38;103061.25;5053234;28;20094;-67
2022/01/19 01:16:17;;;;;;;22.75;11.77;;;;;;;6.75;60.43;103052.38;5053478;28;20037;-66
2022/01/19 01:18:19;;;;;;;20.98;12.90;;;;;;;6.76;60.50;103053.25;5046667;28;20407;-67
2022/01/19 01:20:52;;;;;;;27.48;13.95;;;;;;;6.76;60.53;103048.81;5052151;28;20048;-66
2022/01/19 01:23:22;;;;;;;21.98;13.15;;;;;;;6.75;60.52;103044.38;5053557;28;20071;-67
2022/01/19 01:25:51;;;;;;;17.08;10.43;;;;;;;6.70;60.50;103040.91;5052276;28;20037;-67
2022/01/19 01:28:18;;;;;;;19.33;11.77;;;;;;;6.63;60.46;103032.13;5051829;28;20478;-66
2022/01/19 01:30:46;;;;;;;23.73;12.38;;;;;;;6.55;60.44;103034.06;5052114;28;20498;-68
2022/01/19 01:33:13;;;;;;;20.10;12.02;;;;;;;6.51;60.48;103031.47;5051930;28;20080;-67
2022/01/19 01:35:40;;;;;;;21.60;11.38;;;;;;;6.47;60.57;103019.09;5077321;28;20056;-67
2022/01/19 01:38:07;;;;;;;22.38;12.15;;;;;;;6.44;60.51;103011.16;5033230;28;20083;-67
2022/01/19 01:40:35;;;;;;;20.95;11.52;;;;;;;6.40;60.42;102993.44;5032043;28;20045;-67
2022/01/19 01:43:05;;;;;;;20.92;10.25;;;;;;;6.37;60.68;102983.69;5041348;28;20084;-66
2022/01/19 01:45:36;;;;;;;24.45;11.20;;;;;;;6.34;60.52;102975.75;5052006;28;20045;-67
2022/01/19 01:48:15;;;;;;;20.60;11.50;;;;;;;6.34;60.68;102976.63;5053096;28;20130;-68
2022/01/19 01:53:44;;;;;;;22.65;11.60;;;;;;;6.37;60.59;102963.22;5051419;28;20075;-67
2022/01/19 01:56:16;;;;;;;22.23;11.85;;;;;;;6.38;60.65;102956.09;5051946;28;20041;-67
2022/01/19 01:58:47;;;;;;;22.10;12.38;;;;;;;6.38;60.67;102951.66;5052052;28;20495;-68
2022/01/19 02:01:40;;;;;;;22.17;13.40;;;;;;;6.40;60.79;102956.06;5053233;28;20453;-67
2022/01/19 02:04:10;;;;;;;29.05;15.63;;;;;;;6.41;60.71;102963.16;5051820;28;20037;-67
2022/01/19 02:07:08;;;;;;;31.58;16.33;;;;;;;6.44;61.09;102955.97;5038662;28;20094;-66
2022/01/19 02:09:38;;;;;;;24.83;13.90;;;;;;;6.48;60.79;102951.47;5055720;28;20037;-67
2022/01/19 02:23:21;;;;;;;37.53;17.48;;;;;;;6.52;60.92;102899.75;5056637;28;20068;-67
2022/01/19 02:25:53;;;;;;;36.08;18.70;;;;;;;6.55;61.00;102905.03;5057127;28;20045;-67
2022/01/19 02:42:12;;;;;;;29.95;16.38;;;;;;;6.60;61.07;102869.31;5056241;28;20132;-67
2022/01/19 02:49:47;;;;;;;40.00;18.63;;;;;;;6.60;60.97;102842.63;5036348;28;20038;-66
2022/01/19 02:52:13;;;;;;;38.70;18.95;;;;;;;6.60;60.98;102833.75;5039104;28;20053;-67
2022/01/19 02:54:40;;;;;;;39.83;19.05;;;;;;;6.61;61.04;102835.50;5055913;28;20425;-67
2022/01/19 02:57:10;;;;;;;36.90;19.25;;;;;;;6.59;61.07;102819.50;5056217;28;20131;-68
2022/01/19 03:08:44;;;;;;;39.58;18.33;;;;;;;6.38;60.92;102794.19;5054547;28;20215;-67
2022/01/19 03:10:38;;;;;;;32.75;17.02;;;;;;;6.38;61.03;102775.50;5054246;28;20045;-67
2022/01/19 03:13:05;;;;;;;35.75;17.88;;;;;;;6.38;61.01;102758.63;5055417;28;20552;-67
2022/01/19 03:15:32;;;;;;;30.13;16.63;;;;;;;6.37;61.22;102757.75;5054171;28;20040;-67
2022/01/19 03:18:00;;;;;;;36.00;18.83;;;;;;;6.34;61.22;102754.25;5053129;28;20132;-67
2022/01/19 03:20:28;;;;;;;30.17;17.60;;;;;;;6.31;61.50;102757.88;5054330;28;20072;-67
2022/01/19 03:23:12;;;;;;;37.63;17.95;;;;;;;6.31;61.27;102763.22;5054190;28;20053;-67
2022/01/19 03:25:39;;;;;;;34.42;18.15;;;;;;;6.32;61.33;102758.75;5054412;28;20041;-68
2022/01/19 03:28:07;;;;;;;36.53;18.05;;;;;;;6.31;61.31;102757.88;5054248;28;20071;-68
2022/01/19 03:30:33;;;;;;;34.72;17.60;;;;;;;6.29;61.33;102753.50;5053979;28;20044;-68
2022/01/19 03:33:00;;;;;;;32.05;16.30;;;;;;;6.27;61.30;102750.88;5055116;28;20037;-68
2022/01/19 03:35:28;;;;;;;31.25;16.98;;;;;;;6.22;61.33;102752.75;5053870;28;20049;-67
2022/01/19 03:37:55;;;;;;;33.17;16.55;;;;;;;6.15;61.34;102740.47;5055203;28;20044;-67
2022/01/19 03:40:22;;;;;;;29.88;17.58;;;;;;;6.09;61.38;102734.41;5054105;28;20049;-68
2022/01/19 03:42:50;;;;;;;33.42;16.63;;;;;;;6.03;61.69;102730.94;5054600;28;20033;-68
2022/01/19 03:45:26;;;;;;;36.80;17.67;;;;;;;6.02;61.66;102730.97;5055130;28;20111;-67
2022/01/19 03:48:08;;;;;;;31.30;17.25;;;;;;;5.99;61.84;102713.25;5053937;28;20076;-66
2022/01/19 03:50:37;;;;;;;36.83;18.08;;;;;;;5.97;61.82;102717.75;5053988;28;20041;-68
2022/01/19 03:53:03;;;;;;;31.88;16.65;;;;;;;5.97;61.92;102708.88;5053609;28;20055;-66
2022/01/19 03:55:30;;;;;;;29.33;16.45;;;;;;;5.96;61.96;102708.00;5053583;28;20091;-67
2022/01/19 03:57:56;;;;;;;26.40;16.42;;;;;;;5.94;61.99;102693.78;5054675;28;20516;-67
2022/01/19 04:00:23;;;;;;;27.00;16.20;;;;;;;5.94;61.80;102695.56;5055001;28;20128;-67
2022/01/19 04:02:50;;;;;;;33.15;16.40;;;;;;;5.96;62.07;102696.44;5054939;28;20140;-67
2022/01/19 04:05:36;;;;;;;30.95;16.60;;;;;;;5.97;61.96;102698.22;5054747;28;20048;-67
2022/01/19 04:08:03;;;;;;;30.95;16.42;;;;;;;5.99;62.30;102696.38;5053073;28;20064;-67
2022/01/19 04:10:30;;;;;;;28.55;15.70;;;;;;;6.02;62.30;102706.97;5053520;28;20068;-67
2022/01/19 04:13:09;;;;;;;28.55;16.98;;;;;;;6.03;62.41;102701.63;5053150;28;20116;-67
2022/01/19 04:15:39;;;;;;;30.85;16.77;;;;;;;6.07;62.27;102701.53;5054868;28;20398;-67
2022/01/19 04:18:06;;;;;;;24.10;15.40;;;;;;;6.09;62.35;102697.06;5067716;28;20083;-67
2022/01/19 04:20:40;;;;;;;30.70;16.40;;;;;;;6.09;62.28;102684.59;5033501;28;20136;-67
2022/01/19 04:23:07;;;;;;;35.92;16.98;;;;;;;6.07;62.14;102683.75;5043460;28;20045;-67
2022/01/19 04:25:34;;;;;;;27.27;16.10;;;;;;;6.03;62.22;102695.41;5053018;28;20037;-66
2022/01/19 04:28:07;;;;;;;26.55;16.38;;;;;;;6.02;62.34;102690.97;5052623;28;20060;-67
2022/01/19 04:30:37;;;;;;;27.92;16.25;;;;;;;6.01;62.37;102695.44;5086797;28;20055;-67
2022/01/19 04:33:11;;;;;;;29.27;17.45;;;;;;;6.00;62.33;102687.47;5053913;28;20051;-67
2022/01/19 04:35:45;;;;;;;32.05;17.17;;;;;;;6.00;62.44;102687.47;5053396;28;20134;-67
2022/01/19 05:03:41;;;;;;;32.45;17.95;;;;;;;6.03;62.35;102664.28;5052836;28;20123;-67
2022/01/19 05:06:20;;;;;;;31.27;18.33;;;;;;;6.03;62.50;102661.59;5086071;28;20098;-66
2022/01/19 05:14:11;;;;;;;34.15;18.95;;;;;;;6.08;62.53;102661.50;5045813;28;20106;-67
2022/01/19 05:16:38;;;;;;;37.88;19.52;;;;;;;6.07;62.47;102665.06;5051974;28;20041;-68
2022/01/19 05:19:05;;;;;;;39.30;21.60;;;;;;;6.07;62.53;102666.88;5085631;28;20132;-67
2022/01/19 05:21:33;;;;;;;34.70;21.63;;;;;;;6.07;62.38;102670.41;5036068;28;20067;-67
2022/01/19 05:24:09;;;;;;;40.03;20.48;;;;;;;6.09;62.58;102670.38;5053083;28;20084;-67
2022/01/19 05:26:38;;;;;;;40.17;21.60;;;;;;;6.13;62.56;102672.06;5051942;28;20570;-66
2022/01/19 05:29:07;;;;;;;41.55;20.35;;;;;;;6.16;62.69;102678.19;5051730;28;20041;-67
2022/01/19 05:31:34;;;;;;;45.90;22.95;;;;;;;6.19;62.56;102669.25;5081240;28;20049;-68
2022/01/19 05:34:01;;;;;;;35.58;20.25;;;;;;;6.22;62.67;102671.84;5032093;28;20091;-67
2022/01/19 05:36:36;;;;;;;33.22;18.95;;;;;;;6.25;62.64;102661.97;5033417;28;20410;-67
2022/01/19 05:39:22;;;;;;;38.35;20.02;;;;;;;6.30;62.58;102660.06;5052579;28;20055;-67
2022/01/19 05:42:17;;;;;;;36.07;20.73;;;;;;;6.34;62.65;102666.22;5048519;28;20512;-67
2022/01/19 05:44:47;;;;;;;34.95;19.92;;;;;;;6.35;62.59;102659.97;5052008;28;20306;-67
2022/01/19 05:47:17;;;;;;;39.15;20.25;;;;;;;6.38;62.64;102665.22;5051445;28;20159;-67
2022/01/19 05:49:44;;;;;;;36.83;20.33;;;;;;;6.38;62.44;102660.75;5051553;28;20068;-67
2022/01/19 05:52:13;;;;;;;37.92;19.92;;;;;;;6.40;62.58;102660.72;5043513;28;20056;-66
2022/01/19 05:54:40;;;;;;;39.25;20.60;;;;;;;6.43;62.39;102659.75;5051887;28;20037;-67
2022/01/19 05:57:08;;;;;;;37.40;20.35;;;;;;;6.44;62.63;102662.41;5051600;28;20045;-67
2022/01/19 05:59:41;;;;;;;33.55;18.45;;;;;;;6.45;62.55;102657.94;5052666;28;20123;-68
2022/01/19 06:02:08;;;;;;;34.70;20.30;;;;;;;6.45;62.53;102657.94;5050990;28;20059;-68
2022/01/19 06:04:35;;;;;;;37.75;20.08;;;;;;;6.46;62.64;102649.00;5051031;28;20503;-68
2022/01/19 06:07:03;;;;;;;36.22;20.00;;;;;;;6.48;62.72;102650.72;5050648;28;20037;-67
2022/01/19 06:09:50;;;;;;;33.97;20.13;;;;;;;6.52;62.58;102646.19;5049623;28;20086;-68
2022/01/19 06:12:19;;;;;;;34.10;18.55;;;;;;;6.56;62.65;102645.19;5030483;28;20098;-68
2022/01/19 06:14:46;;;;;;;33.35;18.80;;;;;;;6.60;62.63;102641.53;5035230;28;20045;-68
2022/01/19 06:17:14;;;;;;;34.85;19.27;;;;;;;6.62;62.63;102645.03;5048899;28;20076;-68
2022/01/19 06:19:42;;;;;;;36.42;20.58;;;;;;;6.65;62.55;102644.97;5059946;28;20430;-67
2022/01/19 06:22:12;;;;;;;30.02;18.73;;;;;;;6.68;62.57;102643.09;5066640;28;20044;-67
2022/01/19 06:24:39;;;;;;;35.00;19.40;;;;;;;6.70;62.52;102640.41;5032512;28;20128;-68
2022/01/19 06:27:05;;;;;;;36.40;20.25;;;;;;;6.73;62.51;102631.44;5041485;28;20410;-68
2022/01/19 06:29:32;;;;;;;31.90;19.05;;;;;;;6.75;62.44;102625.13;5039496;28;20070;-68
2022/01/19 06:32:00;;;;;;;32.97;18.52;;;;;;;6.76;62.55;102616.22;5042188;28;20136;-68
2022/01/19 06:34:26;;;;;;;34.40;19.25;;;;;;;6.78;62.54;102617.03;5039286;28;20128;-68
2022/01/19 06:37:28;;;;;;;32.75;18.10;;;;;;;6.79;62.70;102618.78;5048603;28;20567;-68
2022/01/19 06:40:02;;;;;;;31.38;19.30;;;;;;;6.79;62.46;102610.78;5053332;28;20072;-68
2022/01/19 06:42:35;;;;;;;31.67;18.75;;;;;;;6.80;62.39;102607.19;5048016;28;20041;-68
2022/01/19 06:45:04;;;;;;;32.05;19.33;;;;;;;6.80;62.43;102604.53;5049290;28;20042;-68
2022/01/19 06:47:31;;;;;;;37.05;19.65;;;;;;;6.83;62.43;102614.25;5061940;28;20289;-68
2022/01/19 06:49:58;;;;;;;31.48;19.08;;;;;;;6.82;62.45;102599.16;5047495;28;20046;-71
2022/01/19 06:52:34;;;;;;;31.70;18.27;;;;;;;6.84;62.53;102591.97;5053469;28;20140;-68
2022/01/19 06:55:00;;;;;;;30.23;19.58;;;;;;;6.85;62.41;102591.91;5037487;28;20111;-66
2022/01/19 06:57:27;;;;;;;30.75;17.92;;;;;;;6.86;62.36;102582.13;5033403;28;20124;-67
2022/01/19 07:00:16;;;;;;;33.60;18.63;;;;;;;6.85;62.45;102581.25;5050838;28;20037;-67
2022/01/19 07:03:17;;;;;;;30.70;18.55;;;;;;;6.86;62.37;102572.31;5047349;28;20064;-68
2022/01/19 07:05:46;;;;;;;31.33;17.23;;;;;;;6.87;62.49;102571.38;5054161;28;20166;-67
2022/01/19 07:08:31;;;;;;;31.50;18.02;;;;;;;6.87;62.42;102570.50;5053640;28;20532;-66
2022/01/19 07:10:58;;;;;;;28.27;16.77;;;;;;;6.88;62.46;102569.59;5053533;28;20041;-67
2022/01/19 07:13:28;;;;;;;32.63;18.73;;;;;;;6.88;62.49;102565.13;5069185;28;20037;-66
2022/01/19 07:15:54;;;;;;;32.28;18.50;;;;;;;6.88;62.47;102559.78;5049080;28;20521;-66
2022/01/19 07:18:22;;;;;;;29.02;17.17;;;;;;;6.91;62.53;102550.81;5032115;28;20068;-66
2022/01/19 07:20:50;;;;;;;28.55;17.40;;;;;;;6.93;62.50;102559.66;5043445;28;20041;-67
2022/01/19 07:23:18;;;;;;;27.67;17.02;;;;;;;6.95;62.40;102558.69;5048180;28;20456;-66
2022/01/19 07:25:46;;;;;;;29.25;17.40;;;;;;;6.95;62.45;102561.38;5052919;28;20037;-66
2022/01/19 07:28:12;;;;;;;30.38;17.98;;;;;;;6.93;62.49;102555.19;5053933;28;20072;-66
2022/01/19 07:30:41;;;;;;;29.48;17.95;;;;;;;6.94;62.41;102556.06;5052798;28;20294;-66
2022/01/19 07:33:11;;;;;;;30.52;17.67;;;;;;;6.94;62.45;102546.25;5069398;28;20041;-66
2022/01/19 07:35:39;;;;;;;31.23;18.63;;;;;;;6.95;62.49;102539.13;5069285;28;20105;-67
2022/01/19 07:38:06;;;;;;;31.13;18.15;;;;;;;6.96;62.50;102540.88;5086191;28;20118;-66
2022/01/19 07:40:35;;;;;;;27.17;17.23;;;;;;;6.95;62.43;102537.31;5052555;28;20055;-66
2022/01/19 07:43:07;;;;;;;30.95;17.98;;;;;;;6.92;62.38;102542.75;5069335;28;20099;-67
2022/01/19 07:45:59;;;;;;;32.83;18.77;;;;;;;6.93;62.46;102549.84;5052993;28;20067;-65
2022/01/19 07:48:47;;;;;;;32.08;19.08;;;;;;;6.96;62.54;102548.88;5063212;28;20130;-70
2022/01/19 07:51:30;;;;;;;31.70;19.13;;;;;;;7.00;62.58;102548.75;5052731;28;20037;-66
2022/01/19 07:54:20;;;;;;;31.58;18.38;;;;;;;7.04;62.52;102549.53;5046652;28;20047;-65
2022/01/19 07:57:04;;;;;;;31.42;19.08;;;;;;;7.09;62.69;102547.59;5053716;28;20044;-65
2022/01/19 07:59:49;;;;;;;27.55;17.92;;;;;;;7.17;62.69;102542.03;5051937;28;20052;-66
2022/01/19 08:02:16;;;;;;;30.67;17.20;;;;;;;7.21;62.83;102541.91;5052360;28;20075;-65
2022/01/19 08:05:17;;;;;;;32.38;17.85;;;;;;;7.28;62.46;102527.44;5055017;28;20072;-65
2022/01/19 08:07:47;;;;;;;29.88;17.88;;;;;;;7.36;62.81;102529.00;5069205;28;20044;-66
2022/01/19 08:10:14;;;;;;;30.05;18.27;;;;;;;7.42;62.77;102526.13;5052756;28;20087;-66
2022/01/19 08:12:43;;;;;;;29.55;18.58;;;;;;;7.45;62.68;102524.25;5086144;28;20041;-66
2022/01/19 08:15:09;;;;;;;27.13;17.35;;;;;;;7.51;62.67;102524.06;5052931;28;20513;-66
2022/01/19 08:17:37;;;;;;;27.02;17.02;;;;;;;7.54;62.66;102521.31;5063157;28;20041;-65
2022/01/19 08:20:04;;;;;;;28.95;18.10;;;;;;;7.58;62.37;102511.38;5067977;28;20040;-63
2022/01/19 08:22:32;;;;;;;25.98;16.67;;;;;;;7.58;62.56;102520.28;5068249;28;20387;-63
2022/01/19 08:25:38;;;;;;;25.92;16.98;;;;;;;7.58;62.52;102512.25;5050011;28;20517;-63
2022/01/19 08:28:05;;;;;;;32.03;17.00;;;;;;;7.59;62.52;102513.13;5049646;28;20052;-62
2022/01/19 08:30:34;;;;;;;27.88;16.83;;;;;;;7.60;62.46;102509.53;5050079;28;20494;-63
2022/01/19 08:33:06;;;;;;;28.02;16.67;;;;;;;7.61;62.61;102511.28;5065424;28;20045;-63
2022/01/19 08:35:39;;;;;;;27.77;17.35;;;;;;;7.63;62.60;102518.34;5050887;28;20091;-64
2022/01/19 08:38:24;;;;;;;28.35;16.52;;;;;;;7.65;62.41;102512.94;5052148;28;20048;-63
2022/01/19 08:41:04;;;;;;;29.45;17.52;;;;;;;7.63;62.38;102504.97;5050465;28;20128;-63
2022/01/19 08:43:36;;;;;;;27.27;17.10;;;;;;;7.63;62.40;102499.63;5050693;28;20048;-63
2022/01/19 08:46:05;;;;;;;28.42;16.98;;;;;;;7.65;62.48;102489.75;5050376;28;20124;-63
2022/01/19 08:49:07;;;;;;;26.05;16.60;;;;;;;7.69;62.63;102481.63;5051572;28;20056;-63
2022/01/19 08:51:59;;;;;;;27.42;16.42;;;;;;;7.69;62.58;102487.84;5083888;28;20526;-63
2022/01/19 08:54:36;;;;;;;26.45;16.20;;;;;;;7.71;62.49;102488.66;5052371;28;20048;-63
2022/01/19 08:57:08;;;;;;;28.23;16.65;;;;;;;7.73;62.48;102492.16;5050673;28;20542;-63
2022/01/19 08:59:36;;;;;;;24.45;16.60;;;;;;;7.74;62.45;102485.03;5051559;28;20152;-63
2022/01/19 09:02:03;;;;;;;29.83;18.45;;;;;;;7.71;62.29;102479.78;5051561;28;20087;-63
2022/01/19 09:04:31;;;;;;;25.85;16.65;;;;;;;7.69;62.36;102481.63;5050441;28;20453;-63
2022/01/19 09:06:59;;;;;;;30.88;18.27;;;;;;;7.69;62.46;102473.59;5051569;28;20441;-64
2022/01/19 09:09:26;;;;;;;25.17;16.80;;;;;;;7.70;62.37;102468.19;5050462;28;20068;-64
2022/01/19 09:11:52;;;;;;;28.38;17.30;;;;;;;7.70;62.46;102467.31;5049974;28;20135;-64
2022/01/19 09:14:19;;;;;;;29.77;17.48;;;;;;;7.72;62.61;102466.34;5050981;28;20041;-65
2022/01/19 09:16:49;;;;;;;26.60;17.77;;;;;;;7.74;62.61;102458.28;5051577;28;20040;-65
2022/01/19 09:19:18;;;;;;;26.23;17.10;;;;;;;7.78;62.48;102457.25;5051319;28;20075;-65
2022/01/19 09:21:46;;;;;;;27.77;16.77;;;;;;;7.80;62.61;102448.25;5051261;28;20045;-65
2022/01/19 09:24:16;;;;;;;32.88;17.35;;;;;;;7.82;62.55;102450.88;5051503;28;20360;-66
2022/01/19 09:26:44;;;;;;;27.55;18.63;;;;;;;7.83;62.52;102441.91;5051464;28;20041;-65
2022/01/19 09:29:11;;;;;;;26.35;16.38;;;;;;;7.86;62.64;102445.34;5051289;28;20478;-65
2022/01/19 09:31:41;;;;;;;27.35;16.20;;;;;;;7.89;62.61;102447.94;5048847;28;20048;-65
2022/01/19 09:34:15;;;;;;;30.08;18.05;;;;;;;7.89;62.52;102439.91;5051450;28;20521;-64
2022/01/19 09:36:46;;;;;;;27.58;17.83;;;;;;;7.88;62.58;102438.16;5050821;28;20049;-65
2022/01/19 09:39:17;;;;;;;26.60;17.33;;;;;;;7.89;62.55;102431.00;5051240;28;20045;-65
2022/01/19 09:41:46;;;;;;;26.33;17.50;;;;;;;7.88;62.58;102429.25;5051038;28;20349;-65
2022/01/19 09:44:17;;;;;;;27.95;17.00;;;;;;;7.89;62.68;102429.19;5050986;28;20482;-65
2022/01/19 09:46:44;;;;;;;31.58;18.30;;;;;;;7.87;62.51;102417.69;5051051;28;20063;-65
2022/01/19 09:49:15;;;;;;;27.35;16.73;;;;;;;7.88;62.56;102427.47;5051122;28;20055;-64
2022/01/19 09:51:43;;;;;;;27.17;17.48;;;;;;;7.90;62.54;102428.28;5051090;28;20048;-64
2022/01/19 09:54:23;;;;;;;27.48;17.45;;;;;;;7.92;62.63;102417.53;5051413;28;20041;-65
2022/01/19 09:56:52;;;;;;;27.55;18.17;;;;;;;7.93;62.59;102414.78;5051130;28;20076;-65
2022/01/19 09:59:19;;;;;;;31.10;17.80;;;;;;;7.95;62.66;102414.75;5050970;28;20051;-65
2022/01/19 10:01:57;;;;;;;28.25;16.90;;;;;;;7.98;62.52;102409.28;5050469;28;20041;-65
2022/01/19 10:04:29;;;;;;;29.48;17.77;;;;;;;8.01;62.49;102398.47;5051196;28;20045;-65
2022/01/19 10:07:15;;;;;;;26.65;16.63;;;;;;;8.01;62.68;102397.59;5051240;28;20546;-65
2022/01/19 10:09:52;;;;;;;26.45;16.85;;;;;;;8.04;62.43;102400.16;5050644;28;20061;-64
2022/01/19 10:18:16;;;;;;;28.50;17.30;;;;;;;8.13;62.62;102397.16;5050945;28;20075;-65
2022/01/19 10:20:45;;;;;;;30.00;18.15;;;;;;;8.16;62.67;102386.34;5051225;28;20076;-67
2022/01/19 10:24:00;;;;;;;25.58;17.23;;;;;;;8.18;62.92;102385.38;5051235;28;20051;-66
2022/01/19 10:26:28;;;;;;;25.25;16.77;;;;;;;8.23;62.72;102387.91;5051237;28;20053;-66
2022/01/19 10:29:01;;;;;;;27.13;16.58;;;;;;;8.24;62.66;102377.13;5055079;28;20049;-65
2022/01/19 10:31:29;;;;;;;24.40;16.08;;;;;;;8.23;62.52;102379.88;5054704;28;20061;-67
2022/01/19 10:34:16;;;;;;;26.48;16.75;;;;;;;8.23;62.65;102375.38;5055175;28;20037;-65
2022/01/19 10:36:52;;;;;;;24.25;15.93;;;;;;;8.27;62.83;102370.78;5053073;28;20071;-66
2022/01/19 10:39:21;;;;;;;26.80;17.65;;;;;;;8.28;62.64;102362.72;5054554;28;20124;-66
2022/01/19 10:42:01;;;;;;;24.25;16.10;;;;;;;8.27;62.70;102352.06;5054847;28;20491;-65
2022/01/19 10:44:37;;;;;;;25.65;17.38;;;;;;;8.29;62.74;102356.44;5054896;28;20432;-65
2022/01/19 10:47:42;;;;;;;26.60;16.45;;;;;;;8.34;62.44;102355.41;5054772;28;20076;-65
2022/01/19 10:50:15;;;;;;;27.83;17.73;;;;;;;8.37;62.62;102344.59;5055029;28;20116;-66
2022/01/19 10:52:44;;;;;;;30.55;16.23;;;;;;;8.37;62.60;102348.13;5054729;28;20317;-65
2022/01/19 10:55:20;;;;;;;24.25;15.50;;;;;;;8.36;62.65;102350.88;5055014;28;20051;-66
2022/01/19 10:57:48;;;;;;;26.08;16.52;;;;;;;8.37;62.62;102341.91;5054771;28;20516;-66
2022/01/19 11:00:22;;;;;;;25.23;16.00;;;;;;;8.38;62.63;102341.84;5054926;28;20444;-65
2022/01/19 11:02:55;;;;;;;25.85;16.60;;;;;;;8.40;62.66;102336.44;5055167;28;20541;-66
2022/01/19 11:05:49;;;;;;;27.33;16.23;;;;;;;8.42;62.75;102335.44;5054716;28;20072;-67
2022/01/19 11:08:18;;;;;;;26.60;16.40;;;;;;;8.44;62.75;102330.03;5053626;28;20123;-66
2022/01/19 11:10:48;;;;;;;26.35;16.35;;;;;;;8.45;62.76;102323.75;5053846;28;20439;-65
2022/01/19 11:15:59;;;;;;;26.58;16.73;;;;;;;8.47;62.76;102308.50;5053959;28;20045;-65
2022/01/19 11:18:29;;;;;;;28.33;16.80;;;;;;;8.48;62.67;102305.75;5053741;28;20483;-65
2022/01/19 11:21:01;;;;;;;29.13;16.90;;;;;;;8.51;62.70;102296.72;5053753;28;20458;-62
2022/01/19 11:24:11;;;;;;;28.13;17.45;;;;;;;8.51;62.78;102302.97;5053684;28;20055;-63
2022/01/19 11:26:39;;;;;;;45.40;32.63;;;;;;;8.56;62.90;102292.06;5050088;28;20481;-68
2022/01/19 11:29:24;;;;;;;32.53;19.63;;;;;;;8.58;62.92;102291.06;5052480;28;20542;-68
2022/01/19 11:31:53;;;;;;;30.30;18.20;;;;;;;8.64;62.90;102287.28;5053206;28;20120;-68
2022/01/19 11:34:54;;;;;;;28.05;16.65;;;;;;;8.72;63.09;102273.56;5053088;28;20462;-68
2022/01/19 11:37:41;;;;;;;28.38;17.50;;;;;;;8.79;62.85;102267.91;5050922;28;20053;-69
2022/01/19 11:40:12;;;;;;;25.98;17.70;;;;;;;8.84;63.02;102268.59;5052982;28;20055;-68
2022/01/19 11:42:40;;;;;;;25.40;16.48;;;;;;;8.89;63.10;102266.59;5053102;28;20413;-68
2022/01/19 11:45:40;;;;;;;27.52;17.15;;;;;;;8.96;63.05;102256.53;5052896;28;20068;-69
2022/01/19 11:48:12;;;;;;;28.58;16.65;;;;;;;9.02;62.92;102236.63;5052749;28;20055;-68
2022/01/19 11:50:39;;;;;;;28.55;17.02;;;;;;;9.06;62.89;102231.09;5052713;28;20489;-68
2022/01/19 11:53:12;;;;;;;27.20;17.10;;;;;;;9.07;62.81;102238.19;5053189;28;20043;-69
2022/01/19 11:55:41;;;;;;;28.23;17.65;;;;;;;9.08;62.66;102226.53;5052662;28;20055;-68
2022/01/19 11:58:21;;;;;;;26.67;16.95;;;;;;;9.11;62.90;102228.22;5053070;28;20494;-68
2022/01/19 12:00:51;;;;;;;31.90;17.88;;;;;;;9.15;62.78;102221.78;5054650;28;20495;-68
2022/01/19 12:03:27;;;;;;;28.20;18.27;;;;;;;9.17;62.69;102218.09;5053051;28;20102;-68
2022/01/19 12:06:34;;;;;;;26.52;17.25;;;;;;;9.17;62.64;102209.19;5054610;28;20486;-69
2022/01/19 12:09:03;;;;;;;26.15;17.48;;;;;;;9.19;62.48;102215.34;5053864;28;20033;-68
2022/01/19 12:11:34;;;;;;;28.38;18.83;;;;;;;9.17;62.61;102206.50;5050607;28;20628;-68
2022/01/19 12:14:20;;;;;;;27.90;18.02;;;;;;;9.16;62.36;102191.34;5045415;28;20398;-68
2022/01/19 12:19:28;;;;;;;30.05;18.42;;;;;;;9.16;62.38;102176.16;5053681;28;20044;-68
2022/01/19 12:22:02;;;;;;;30.77;19.58;;;;;;;9.18;62.63;102178.75;5053570;28;20502;-68
2022/01/19 12:24:54;;;;;;;29.73;19.27;;;;;;;9.20;62.42;102187.59;5042807;28;20063;-68
2022/01/19 12:27:20;;;;;;;31.70;18.33;;;;;;;9.20;62.29;102179.56;5053224;28;20029;-68
2022/01/19 12:30:09;;;;;;;31.08;19.80;;;;;;;9.20;62.40;102168.84;5053340;28;20098;-68
2022/01/19 12:32:59;;;;;;;30.92;19.88;;;;;;;9.25;62.49;102161.47;5050330;28;20124;-68
2022/01/19 12:35:35;;;;;;;31.17;20.67;;;;;;;9.29;62.54;102165.75;5053045;28;20116;-68
2022/01/19 12:38:18;;;;;;;33.30;20.05;;;;;;;9.33;62.38;102159.31;5053383;28;20052;-68
2022/01/19 12:40:47;;;;;;;34.15;22.77;;;;;;;9.38;62.44;102164.47;5053071;28;20033;-68
2022/01/19 12:43:33;;;;;;;34.63;21.08;;;;;;;9.40;62.39;102167.94;5053391;28;20068;-68
2022/01/19 12:46:04;;;;;;;39.15;22.08;;;;;;;9.41;62.41;102153.59;5053413;28;20071;-69
2022/01/19 12:48:47;;;;;;;33.08;20.95;;;;;;;9.43;62.24;102149.91;5052696;28;20053;-69
2022/01/19 12:51:36;;;;;;;35.78;21.95;;;;;;;9.46;62.40;102143.53;5032747;28;20033;-68
2022/01/19 12:54:07;;;;;;;32.97;21.38;;;;;;;9.50;62.35;102123.69;5033028;28;20049;-68
2022/01/19 12:56:58;;;;;;;34.25;21.42;;;;;;;9.51;62.28;102117.38;5046507;28;20779;-68
2022/01/19 12:59:24;;;;;;;30.77;20.07;;;;;;;9.51;62.06;102115.56;5051851;28;20491;-68
2022/01/19 13:01:52;;;;;;;32.30;21.10;;;;;;;9.51;62.16;102112.00;5052322;28;20065;-68
2022/01/19 13:04:28;;;;;;;35.28;22.48;;;;;;;9.51;62.16;102110.19;5052029;28;20080;-68
2022/01/19 13:07:17;;;;;;;36.55;22.08;;;;;;;9.53;61.95;102108.31;5052247;28;20056;-64